Waynesburg, Pennsylvania
Current Conditions -  °F | °C
As of 5:53 AM on Friday 19 Dec 2014 (Local Time) from KMGW Reporting Station
Overcast Overcast  
Wind Chill: 27°   Ceiling: 1500
Heat Index: 27°   Visibility: 10mi
Dew Point: 19°   Wind: 3mph
Humidity: 72%   Direction: NA
Pressure: 30.17"   Gusts: NA
Location:  39.9°N, 80.18°W
Report Text: KMGW 191053Z AUTO VRB03KT 10SM BKN015 OVC025 M03/M07 A3017 RMK AO2 SLP232 T10281072 TSNO
Loading
Personal Weather Stations






























Interactive Weather Map New forecast layout! Learn more

10-Day Weather Forecast

Advertisements
Track Severe Weather on mobile